sensor_id;sensor_type;location;lat;lon;timestamp;P1;durP1;ratioP1;P2;durP2;ratioP2
12912;SDS011;6524;51.368;11.984;2023-02-28T00:01:52;4.25;;;3.70;;
12912;SDS011;6524;51.368;11.984;2023-02-28T00:06:52;4.07;;;3.50;;
12912;SDS011;6524;51.368;11.984;2023-02-28T00:11:53;3.97;;;3.10;;
12912;SDS011;6524;51.368;11.984;2023-02-28T00:16:53;5.30;;;3.20;;
12912;SDS011;6524;51.368;11.984;2023-02-28T00:21:53;5.40;;;3.60;;
12912;SDS011;6524;51.368;11.984;2023-02-28T00:26:54;4.37;;;3.43;;
12912;SDS011;6524;51.368;11.984;2023-02-28T00:31:54;4.73;;;3.70;;
12912;SDS011;6524;51.368;11.984;2023-02-28T00:36:54;4.20;;;3.30;;
12912;SDS011;6524;51.368;11.984;2023-02-28T00:41:55;5.37;;;3.37;;
12912;SDS011;6524;51.368;11.984;2023-02-28T00:46:55;4.33;;;3.50;;
12912;SDS011;6524;51.368;11.984;2023-02-28T00:51:56;4.73;;;3.13;;
12912;SDS011;6524;51.368;11.984;2023-02-28T00:56:56;4.57;;;3.20;;
12912;SDS011;6524;51.368;11.984;2023-02-28T05:03:38;4.63;;;3.70;;
12912;SDS011;6524;51.368;11.984;2023-02-28T05:08:40;6.30;;;4.17;;
12912;SDS011;6524;51.368;11.984;2023-02-28T05:13:41;6.30;;;4.30;;
12912;SDS011;6524;51.368;11.984;2023-02-28T05:18:41;6.53;;;4.20;;
12912;SDS011;6524;51.368;11.984;2023-02-28T05:23:41;5.63;;;3.93;;
12912;SDS011;6524;51.368;11.984;2023-02-28T05:28:42;6.27;;;4.10;;
12912;SDS011;6524;51.368;11.984;2023-02-28T05:33:43;6.00;;;4.23;;
12912;SDS011;6524;51.368;11.984;2023-02-28T05:38:45;5.93;;;4.07;;
12912;SDS011;6524;51.368;11.984;2023-02-28T05:43:47;5.50;;;4.50;;
12912;SDS011;6524;51.368;11.984;2023-02-28T05:48:48;6.17;;;4.37;;
12912;SDS011;6524;51.368;11.984;2023-02-28T05:53:50;6.07;;;4.33;;
12912;SDS011;6524;51.368;11.984;2023-02-28T05:58:51;6.00;;;4.57;;
12912;SDS011;6524;51.368;11.984;2023-02-28T06:03:51;6.93;;;4.03;;
12912;SDS011;6524;51.368;11.984;2023-02-28T06:08:52;5.70;;;4.17;;
12912;SDS011;6524;51.368;11.984;2023-02-28T06:13:53;5.23;;;4.23;;
12912;SDS011;6524;51.368;11.984;2023-02-28T06:18:57;7.40;;;4.60;;
12912;SDS011;6524;51.368;11.984;2023-02-28T06:23:58;9.60;;;5.07;;
12912;SDS011;6524;51.368;11.984;2023-02-28T06:28:58;5.77;;;4.63;;
12912;SDS011;6524;51.368;11.984;2023-02-28T06:34:00;6.73;;;4.17;;
12912;SDS011;6524;51.368;11.984;2023-02-28T06:39:01;6.33;;;4.40;;
12912;SDS011;6524;51.368;11.984;2023-02-28T06:44:01;7.60;;;4.60;;
12912;SDS011;6524;51.368;11.984;2023-02-28T06:49:02;6.27;;;3.97;;
12912;SDS011;6524;51.368;11.984;2023-02-28T06:54:02;5.37;;;4.20;;
12912;SDS011;6524;51.368;11.984;2023-02-28T06:59:03;6.47;;;4.10;;
12912;SDS011;6524;51.368;11.984;2023-02-28T07:04:04;7.63;;;4.73;;
12912;SDS011;6524;51.368;11.984;2023-02-28T07:09:05;5.87;;;4.40;;
12912;SDS011;6524;51.368;11.984;2023-02-28T07:14:06;6.40;;;4.33;;
12912;SDS011;6524;51.368;11.984;2023-02-28T07:19:07;5.18;;;4.50;;
12912;SDS011;6524;51.368;11.984;2023-02-28T07:24:07;5.60;;;5.10;;
12912;SDS011;6524;51.368;11.984;2023-02-28T07:29:08;5.88;;;5.25;;
12912;SDS011;6524;51.368;11.984;2023-02-28T07:34:08;5.70;;;5.07;;
12912;SDS011;6524;51.368;11.984;2023-02-28T07:39:08;5.95;;;5.35;;
12912;SDS011;6524;51.368;11.984;2023-02-28T07:44:11;5.75;;;5.22;;
12912;SDS011;6524;51.368;11.984;2023-02-28T07:49:11;5.35;;;4.85;;
12912;SDS011;6524;51.368;11.984;2023-02-28T07:54:12;6.32;;;5.43;;
12912;SDS011;6524;51.368;11.984;2023-02-28T07:59:12;5.57;;;4.97;;
12912;SDS011;6524;51.368;11.984;2023-02-28T08:04:12;5.80;;;5.10;;
12912;SDS011;6524;51.368;11.984;2023-02-28T08:09:13;5.47;;;4.93;;
12912;SDS011;6524;51.368;11.984;2023-02-28T08:14:14;6.78;;;5.22;;
12912;SDS011;6524;51.368;11.984;2023-02-28T08:19:14;5.97;;;5.30;;
12912;SDS011;6524;51.368;11.984;2023-02-28T08:24:15;6.05;;;5.18;;
12912;SDS011;6524;51.368;11.984;2023-02-28T08:29:15;5.63;;;5.00;;
12912;SDS011;6524;51.368;11.984;2023-02-28T08:34:16;5.63;;;5.10;;
12912;SDS011;6524;51.368;11.984;2023-02-28T08:39:17;5.28;;;4.78;;
12912;SDS011;6524;51.368;11.984;2023-02-28T08:44:17;5.15;;;4.63;;
12912;SDS011;6524;51.368;11.984;2023-02-28T08:49:18;5.97;;;5.17;;
12912;SDS011;6524;51.368;11.984;2023-02-28T08:54:18;5.13;;;4.50;;
12912;SDS011;6524;51.368;11.984;2023-02-28T08:59:19;4.68;;;4.25;;
12912;SDS011;6524;51.368;11.984;2023-02-28T09:04:20;4.80;;;4.30;;
12912;SDS011;6524;51.368;11.984;2023-02-28T09:09:20;5.00;;;4.05;;
12912;SDS011;6524;51.368;11.984;2023-02-28T09:14:21;5.87;;;5.37;;
12912;SDS011;6524;51.368;11.984;2023-02-28T09:19:21;6.32;;;5.82;;
12912;SDS011;6524;51.368;11.984;2023-02-28T09:24:22;4.78;;;4.38;;
12912;SDS011;6524;51.368;11.984;2023-02-28T09:29:22;4.30;;;3.90;;
12912;SDS011;6524;51.368;11.984;2023-02-28T09:34:23;5.80;;;4.22;;
12912;SDS011;6524;51.368;11.984;2023-02-28T09:39:23;5.20;;;3.67;;
12912;SDS011;6524;51.368;11.984;2023-02-28T09:44:28;3.78;;;3.47;;
12912;SDS011;6524;51.368;11.984;2023-02-28T09:49:43;4.35;;;3.72;;
12912;SDS011;6524;51.368;11.984;2023-02-28T09:54:46;4.70;;;4.05;;
12912;SDS011;6524;51.368;11.984;2023-02-28T09:59:50;5.28;;;4.07;;
12912;SDS011;6524;51.368;11.984;2023-02-28T10:05:17;5.05;;;3.80;;
12912;SDS011;6524;51.368;11.984;2023-02-28T10:10:24;5.32;;;3.92;;
12912;SDS011;6524;51.368;11.984;2023-02-28T10:15:29;4.70;;;4.30;;
12912;SDS011;6524;51.368;11.984;2023-02-28T10:20:32;12.23;;;6.95;;
12912;SDS011;6524;51.368;11.984;2023-02-28T10:25:36;6.03;;;4.60;;
12912;SDS011;6524;51.368;11.984;2023-02-28T10:30:39;31.02;;;12.18;;
12912;SDS011;6524;51.368;11.984;2023-02-28T10:35:42;5.30;;;4.80;;
12912;SDS011;6524;51.368;11.984;2023-02-28T10:40:43;4.63;;;4.20;;
12912;SDS011;6524;51.368;11.984;2023-02-28T10:45:53;5.15;;;4.50;;
12912;SDS011;6524;51.368;11.984;2023-02-28T10:50:55;6.40;;;4.85;;
12912;SDS011;6524;51.368;11.984;2023-02-28T11:01:02;5.20;;;4.70;;
12912;SDS011;6524;51.368;11.984;2023-02-28T11:06:07;4.97;;;4.47;;
12912;SDS011;6524;51.368;11.984;2023-02-28T11:11:13;6.32;;;5.40;;
12912;SDS011;6524;51.368;11.984;2023-02-28T11:16:14;5.80;;;5.25;;
12912;SDS011;6524;51.368;11.984;2023-02-28T11:21:16;6.40;;;5.80;;
12912;SDS011;6524;51.368;11.984;2023-02-28T11:26:37;6.07;;;5.22;;
12912;SDS011;6524;51.368;11.984;2023-02-28T11:31:39;5.63;;;5.13;;
12912;SDS011;6524;51.368;11.984;2023-02-28T11:36:40;5.82;;;5.22;;
12912;SDS011;6524;51.368;11.984;2023-02-28T11:47:11;5.93;;;5.32;;
12912;SDS011;6524;51.368;11.984;2023-02-28T11:52:25;6.10;;;5.50;;
12912;SDS011;6524;51.368;11.984;2023-02-28T12:08:15;5.68;;;4.63;;
12912;SDS011;6524;51.368;11.984;2023-02-28T12:13:42;6.32;;;5.72;;
12912;SDS011;6524;51.368;11.984;2023-02-28T12:24:12;5.93;;;5.20;;
12912;SDS011;6524;51.368;11.984;2023-02-28T12:29:36;5.75;;;5.25;;
12912;SDS011;6524;51.368;11.984;2023-02-28T12:34:47;5.90;;;5.30;;
12912;SDS011;6524;51.368;11.984;2023-02-28T12:39:51;5.68;;;5.18;;
12912;SDS011;6524;51.368;11.984;2023-02-28T12:45:01;6.70;;;6.10;;
12912;SDS011;6524;51.368;11.984;2023-02-28T12:50:11;7.57;;;6.70;;
12912;SDS011;6524;51.368;11.984;2023-02-28T12:55:19;6.00;;;5.40;;
12912;SDS011;6524;51.368;11.984;2023-02-28T13:00:29;6.80;;;5.50;;
12912;SDS011;6524;51.368;11.984;2023-02-28T13:11:03;6.57;;;5.85;;
12912;SDS011;6524;51.368;11.984;2023-02-28T13:16:06;6.97;;;6.03;;
12912;SDS011;6524;51.368;11.984;2023-02-28T13:21:21;6.65;;;5.75;;
12912;SDS011;6524;51.368;11.984;2023-02-28T13:31:30;7.00;;;6.30;;
12912;SDS011;6524;51.368;11.984;2023-02-28T13:36:34;7.18;;;6.22;;
12912;SDS011;6524;51.368;11.984;2023-02-28T13:46:38;7.78;;;6.80;;
12912;SDS011;6524;51.368;11.984;2023-02-28T14:08:23;7.90;;;7.10;;
12912;SDS011;6524;51.368;11.984;2023-02-28T14:18:58;8.13;;;7.30;;
12912;SDS011;6524;51.368;11.984;2023-02-28T14:40:35;7.78;;;6.95;;
12912;SDS011;6524;51.368;11.984;2023-02-28T14:45:38;9.15;;;7.07;;
12912;SDS011;6524;51.368;11.984;2023-02-28T14:50:39;7.53;;;6.63;;
12912;SDS011;6524;51.368;11.984;2023-02-28T14:55:43;8.30;;;7.30;;
12912;SDS011;6524;51.368;11.984;2023-02-28T15:00:48;8.65;;;7.32;;
12912;SDS011;6524;51.368;11.984;2023-02-28T15:05:56;7.82;;;7.03;;
12912;SDS011;6524;51.368;11.984;2023-02-28T15:10:59;8.80;;;7.32;;
12912;SDS011;6524;51.368;11.984;2023-02-28T15:16:12;9.70;;;7.70;;
12912;SDS011;6524;51.368;11.984;2023-02-28T15:21:21;9.48;;;7.22;;
12912;SDS011;6524;51.368;11.984;2023-02-28T15:26:24;9.45;;;7.25;;
12912;SDS011;6524;51.368;11.984;2023-02-28T15:31:33;7.85;;;6.97;;
12912;SDS011;6524;51.368;11.984;2023-02-28T15:36:39;9.70;;;7.57;;
12912;SDS011;6524;51.368;11.984;2023-02-28T15:41:40;7.97;;;7.18;;
12912;SDS011;6524;51.368;11.984;2023-02-28T15:46:41;8.68;;;7.60;;
12912;SDS011;6524;51.368;11.984;2023-02-28T15:51:51;8.63;;;7.50;;
12912;SDS011;6524;51.368;11.984;2023-02-28T15:56:55;8.53;;;7.30;;
12912;SDS011;6524;51.368;11.984;2023-02-28T16:02:14;9.30;;;8.07;;
12912;SDS011;6524;51.368;11.984;2023-02-28T16:07:20;11.70;;;8.30;;
12912;SDS011;6524;51.368;11.984;2023-02-28T16:12:22;8.63;;;7.73;;
12912;SDS011;6524;51.368;11.984;2023-02-28T16:17:32;11.70;;;8.50;;
12912;SDS011;6524;51.368;11.984;2023-02-28T16:22:35;8.57;;;7.67;;
12912;SDS011;6524;51.368;11.984;2023-02-28T16:27:36;10.60;;;7.63;;
12912;SDS011;6524;51.368;11.984;2023-02-28T16:32:37;9.17;;;8.03;;
12912;SDS011;6524;51.368;11.984;2023-02-28T16:37:37;9.37;;;7.20;;
12912;SDS011;6524;51.368;11.984;2023-02-28T16:42:38;9.17;;;7.97;;
12912;SDS011;6524;51.368;11.984;2023-02-28T16:47:38;9.53;;;7.97;;
12912;SDS011;6524;51.368;11.984;2023-02-28T16:52:39;10.67;;;8.97;;
12912;SDS011;6524;51.368;11.984;2023-02-28T16:57:39;11.00;;;8.93;;
12912;SDS011;6524;51.368;11.984;2023-02-28T17:02:40;9.20;;;8.27;;
12912;SDS011;6524;51.368;11.984;2023-02-28T17:07:41;12.63;;;9.20;;
12912;SDS011;6524;51.368;11.984;2023-02-28T17:12:42;11.43;;;9.20;;
12912;SDS011;6524;51.368;11.984;2023-02-28T17:17:43;11.83;;;9.20;;
12912;SDS011;6524;51.368;11.984;2023-02-28T17:22:44;11.00;;;9.37;;
12912;SDS011;6524;51.368;11.984;2023-02-28T17:27:45;10.00;;;8.20;;
12912;SDS011;6524;51.368;11.984;2023-02-28T17:32:46;9.43;;;8.37;;
12912;SDS011;6524;51.368;11.984;2023-02-28T17:37:46;12.83;;;9.07;;
12912;SDS011;6524;51.368;11.984;2023-02-28T17:42:47;14.87;;;9.80;;
12912;SDS011;6524;51.368;11.984;2023-02-28T17:47:48;11.80;;;9.53;;
12912;SDS011;6524;51.368;11.984;2023-02-28T17:52:50;12.30;;;9.70;;
12912;SDS011;6524;51.368;11.984;2023-02-28T17:57:50;14.13;;;10.63;;
12912;SDS011;6524;51.368;11.984;2023-02-28T18:02:50;12.10;;;9.40;;
12912;SDS011;6524;51.368;11.984;2023-02-28T18:07:51;12.77;;;9.07;;
12912;SDS011;6524;51.368;11.984;2023-02-28T18:12:52;10.20;;;8.50;;
12912;SDS011;6524;51.368;11.984;2023-02-28T18:17:53;11.13;;;9.27;;
12912;SDS011;6524;51.368;11.984;2023-02-28T18:22:54;12.90;;;9.97;;
12912;SDS011;6524;51.368;11.984;2023-02-28T18:27:54;13.30;;;10.27;;
12912;SDS011;6524;51.368;11.984;2023-02-28T18:32:58;14.60;;;11.47;;
12912;SDS011;6524;51.368;11.984;2023-02-28T18:38:01;15.67;;;11.03;;
12912;SDS011;6524;51.368;11.984;2023-02-28T18:43:02;13.20;;;10.30;;
12912;SDS011;6524;51.368;11.984;2023-02-28T18:48:03;12.93;;;10.63;;
12912;SDS011;6524;51.368;11.984;2023-02-28T18:53:05;12.87;;;10.80;;
12912;SDS011;6524;51.368;11.984;2023-02-28T18:58:05;14.83;;;11.40;;
12912;SDS011;6524;51.368;11.984;2023-02-28T19:03:06;15.53;;;11.73;;
12912;SDS011;6524;51.368;11.984;2023-02-28T19:08:06;17.30;;;12.10;;
12912;SDS011;6524;51.368;11.984;2023-02-28T19:13:07;17.07;;;11.93;;
12912;SDS011;6524;51.368;11.984;2023-02-28T19:18:08;14.17;;;11.37;;
12912;SDS011;6524;51.368;11.984;2023-02-28T19:23:09;16.23;;;12.07;;
12912;SDS011;6524;51.368;11.984;2023-02-28T19:28:10;14.80;;;11.60;;
12912;SDS011;6524;51.368;11.984;2023-02-28T19:33:11;13.87;;;11.67;;
12912;SDS011;6524;51.368;11.984;2023-02-28T19:38:11;15.57;;;12.03;;
12912;SDS011;6524;51.368;11.984;2023-02-28T19:43:11;16.10;;;11.70;;
12912;SDS011;6524;51.368;11.984;2023-02-28T19:48:12;18.63;;;13.07;;
12912;SDS011;6524;51.368;11.984;2023-02-28T19:53:12;16.00;;;12.73;;
12912;SDS011;6524;51.368;11.984;2023-02-28T19:58:13;16.33;;;11.60;;
12912;SDS011;6524;51.368;11.984;2023-02-28T20:03:15;16.93;;;12.27;;
12912;SDS011;6524;51.368;11.984;2023-02-28T20:08:17;18.47;;;12.80;;
12912;SDS011;6524;51.368;11.984;2023-02-28T20:13:17;21.10;;;13.27;;
12912;SDS011;6524;51.368;11.984;2023-02-28T20:18:18;16.20;;;12.70;;
12912;SDS011;6524;51.368;11.984;2023-02-28T20:23:19;18.70;;;13.40;;
12912;SDS011;6524;51.368;11.984;2023-02-28T20:28:23;18.90;;;14.20;;
12912;SDS011;6524;51.368;11.984;2023-02-28T20:33:24;18.33;;;13.47;;
12912;SDS011;6524;51.368;11.984;2023-02-28T20:38:25;18.03;;;12.87;;
12912;SDS011;6524;51.368;11.984;2023-02-28T20:43:26;18.77;;;12.57;;
12912;SDS011;6524;51.368;11.984;2023-02-28T20:48:28;15.43;;;11.60;;
12912;SDS011;6524;51.368;11.984;2023-02-28T20:53:32;18.37;;;13.13;;
12912;SDS011;6524;51.368;11.984;2023-02-28T20:58:36;21.83;;;13.93;;
12912;SDS011;6524;51.368;11.984;2023-02-28T21:03:37;18.03;;;12.87;;
12912;SDS011;6524;51.368;11.984;2023-02-28T21:08:41;18.37;;;12.07;;
12912;SDS011;6524;51.368;11.984;2023-02-28T21:13:43;20.90;;;13.43;;
12912;SDS011;6524;51.368;11.984;2023-02-28T21:18:44;17.20;;;13.37;;
12912;SDS011;6524;51.368;11.984;2023-02-28T21:23:45;18.83;;;14.17;;
12912;SDS011;6524;51.368;11.984;2023-02-28T21:28:49;17.97;;;13.37;;
12912;SDS011;6524;51.368;11.984;2023-02-28T21:34:04;18.63;;;13.17;;
12912;SDS011;6524;51.368;11.984;2023-02-28T21:39:11;17.17;;;12.00;;
12912;SDS011;6524;51.368;11.984;2023-02-28T21:44:17;19.53;;;13.10;;
12912;SDS011;6524;51.368;11.984;2023-02-28T21:49:17;20.23;;;13.10;;
12912;SDS011;6524;51.368;11.984;2023-02-28T21:54:21;21.17;;;13.63;;
12912;SDS011;6524;51.368;11.984;2023-02-28T21:59:22;20.27;;;14.17;;
12912;SDS011;6524;51.368;11.984;2023-02-28T22:04:23;20.00;;;14.13;;
12912;SDS011;6524;51.368;11.984;2023-02-28T22:09:24;22.40;;;15.33;;
12912;SDS011;6524;51.368;11.984;2023-02-28T22:14:25;21.77;;;14.40;;
12912;SDS011;6524;51.368;11.984;2023-02-28T22:19:25;22.40;;;14.87;;
12912;SDS011;6524;51.368;11.984;2023-02-28T22:24:25;27.93;;;17.13;;
12912;SDS011;6524;51.368;11.984;2023-02-28T22:29:26;33.50;;;21.40;;
12912;SDS011;6524;51.368;11.984;2023-02-28T22:34:26;39.00;;;22.97;;
12912;SDS011;6524;51.368;11.984;2023-02-28T22:39:26;41.13;;;25.33;;
12912;SDS011;6524;51.368;11.984;2023-02-28T22:44:27;32.90;;;20.47;;
12912;SDS011;6524;51.368;11.984;2023-02-28T22:49:27;29.33;;;18.43;;
12912;SDS011;6524;51.368;11.984;2023-02-28T22:54:27;24.10;;;15.97;;
12912;SDS011;6524;51.368;11.984;2023-02-28T22:59:28;23.33;;;16.00;;
12912;SDS011;6524;51.368;11.984;2023-02-28T23:04:28;20.57;;;14.17;;
12912;SDS011;6524;51.368;11.984;2023-02-28T23:09:29;19.90;;;14.07;;
12912;SDS011;6524;51.368;11.984;2023-02-28T23:14:29;20.43;;;13.97;;
12912;SDS011;6524;51.368;11.984;2023-02-28T23:19:30;18.37;;;13.70;;
12912;SDS011;6524;51.368;11.984;2023-02-28T23:24:31;22.77;;;14.43;;
12912;SDS011;6524;51.368;11.984;2023-02-28T23:29:33;20.13;;;13.77;;
12912;SDS011;6524;51.368;11.984;2023-02-28T23:34:34;19.27;;;13.97;;
12912;SDS011;6524;51.368;11.984;2023-02-28T23:39:34;20.00;;;13.90;;
12912;SDS011;6524;51.368;11.984;2023-02-28T23:44:35;20.83;;;13.77;;
12912;SDS011;6524;51.368;11.984;2023-02-28T23:49:35;20.73;;;14.10;;
12912;SDS011;6524;51.368;11.984;2023-02-28T23:54:35;19.97;;;14.40;;
12912;SDS011;6524;51.368;11.984;2023-02-28T23:59:36;20.00;;;14.40;;
